This is the latest recevied weather packets stored in our database for station/object JF7BTK-10. If no packets are shown the sender has not sent any weather packets the latest 10 day(s).
| Time | Temp. | Humidity | Pressure | Rain* | Wind** | Luminosity | Snow |
|---|---|---|---|---|---|---|---|
| 1777614752 | 13.33° C | 93% | 993.9 hPa | 0.76 mm | - | - | - |
| 1777614231 | 13.33° C | 92% | 993.7 hPa | 0.76 mm | - | - | - |
| 1777613331 | 13.33° C | 92% | 994.3 hPa | 0.76 mm | - | - | - |
| 1777612952 | 13.33° C | 91% | 994.3 hPa | 0.76 mm | - | - | - |
| 1777612651 | 13.33° C | 91% | 994.5 hPa | 0.51 mm | - | - | - |
| 1777612431 | 13.33° C | 91% | 994.5 hPa | 0.76 mm | - | - | - |
| 1777612352 | 13.33° C | 91% | 994.4 hPa | 0.76 mm | - | - | - |
| 1777612052 | 13.89° C | 91% | 994.7 hPa | 0.76 mm | - | - | - |
| 1777611752 | 13.89° C | 91% | 994.9 hPa | 0.76 mm | - | - | - |
| 1777611532 | 13.89° C | 91% | 995 hPa | 1.02 mm | - | - | - |
| 1777610632 | 13.89° C | 90% | 995.2 hPa | 0.76 mm | - | - | - |
| 1777609731 | 13.89° C | 89% | 995.5 hPa | 0.76 mm | - | - | - |
| 1777608832 | 13.89° C | 87% | 996.1 hPa | 0.76 mm | - | - | - |
| 1777608452 | 14.44° C | 86% | 996.5 hPa | 1.02 mm | - | - | - |
| 1777608152 | 14.44° C | 86% | 996.7 hPa | 1.02 mm | - | - | - |
| 1777607932 | 14.44° C | 86% | 996.7 hPa | 1.02 mm | - | - | - |
| 1777607032 | 14.44° C | 87% | 997.1 hPa | 1.27 mm | - | - | - |
| 1777606351 | 14.44° C | 86% | 997.3 hPa | 1.27 mm | - | - | - |
| 1777606131 | 14.44° C | 85% | 997.4 hPa | 1.02 mm | - | - | - |
| 1777606052 | 14.44° C | 85% | 997.5 hPa | 1.02 mm | - | - | - |
| 1777605752 | 14.44° C | 83% | 997.5 hPa | 1.02 mm | - | - | - |
| 1777605232 | 14.44° C | 80% | 998.2 hPa | 0.76 mm | - | - | - |
| 1777605152 | 14.44° C | 80% | 998.1 hPa | 0.76 mm | - | - | - |
| 1777604332 | 15.56° C | 74% | 998.6 hPa | 0.25 mm | - | - | - |
| 1777603432 | 15.56° C | 71% | 999 hPa | 0 mm | - | - | - |
* Rain latest hour (hover to see other rain measurements)
** Current wind speed in m/s (hover to see current wind gust speed)